createdAt,value
2018-09-27T00:00:35.819Z,17.00
2018-09-27T00:03:05.411Z,15.60
2018-09-27T00:05:35.539Z,15.77
2018-09-27T00:08:05.283Z,17.13
2018-09-27T00:10:34.992Z,19.90
2018-09-27T00:13:04.578Z,19.33
2018-09-27T00:15:34.426Z,18.63
2018-09-27T00:18:03.942Z,18.03
2018-09-27T00:20:33.429Z,16.47
2018-09-27T00:23:03.080Z,16.37
2018-09-27T00:25:33.553Z,16.47
2018-09-27T00:28:03.070Z,16.87
2018-09-27T00:30:33.388Z,16.73
2018-09-27T00:33:03.153Z,17.60
2018-09-27T00:35:34.360Z,15.80
2018-09-27T00:38:03.897Z,15.97
2018-09-27T00:40:33.472Z,16.63
2018-09-27T00:43:03.710Z,17.40
2018-09-27T00:45:33.285Z,16.80
2018-09-27T00:48:02.788Z,16.17
2018-09-27T00:50:31.813Z,16.00
2018-09-27T00:53:00.823Z,16.20
2018-09-27T00:55:29.855Z,17.50
2018-09-27T00:57:58.875Z,17.10
2018-09-27T01:00:28.515Z,17.00
2018-09-27T01:02:57.566Z,16.20
2018-09-27T01:05:26.689Z,16.50
2018-09-27T01:07:55.711Z,16.83
2018-09-27T01:10:25.619Z,16.40
2018-09-27T01:12:54.909Z,16.93
2018-09-27T01:15:23.918Z,16.60
2018-09-27T01:17:53.909Z,17.47
2018-09-27T01:20:22.995Z,16.83
2018-09-27T01:22:52.601Z,17.33
2018-09-27T01:25:21.725Z,14.77
2018-09-27T01:27:51.913Z,14.80
2018-09-27T01:30:21.049Z,15.00
2018-09-27T01:32:50.191Z,14.70
2018-09-27T01:35:19.355Z,15.73
2018-09-27T01:37:48.458Z,13.80
2018-09-27T01:40:18.445Z,13.63
2018-09-27T01:42:47.485Z,12.90
2018-09-27T01:45:16.485Z,13.70
2018-09-27T01:47:45.863Z,15.50
2018-09-27T01:50:14.959Z,16.03
2018-09-27T01:52:44.003Z,14.90
2018-09-27T01:55:13.023Z,15.90
2018-09-27T01:57:42.677Z,16.23
2018-09-27T02:00:11.721Z,16.17
2018-09-27T02:02:40.793Z,14.83
2018-09-27T02:05:09.832Z,15.90
2018-09-27T02:07:39.774Z,15.07
2018-09-27T02:10:08.916Z,15.10
2018-09-27T02:12:37.911Z,14.60
2018-09-27T02:15:07.532Z,15.20
2018-09-27T02:17:36.810Z,15.17
2018-09-27T02:20:06.263Z,15.10
2018-09-27T02:22:35.302Z,14.17
2018-09-27T02:25:05.410Z,15.00
2018-09-27T02:27:34.442Z,13.50
2018-09-27T02:30:03.506Z,13.87
2018-09-27T02:32:32.523Z,13.73
2018-09-27T02:35:02.025Z,14.47
2018-09-27T02:37:31.383Z,14.10
2018-09-27T02:40:00.387Z,15.03
2018-09-27T02:42:29.556Z,14.40
2018-09-27T02:44:58.604Z,14.07
2018-09-27T02:47:28.586Z,14.23
2018-09-27T02:49:57.644Z,13.63
2018-09-27T02:52:26.729Z,16.17
2018-09-27T02:54:55.798Z,16.87
2018-09-27T02:57:25.056Z,16.60
2018-09-27T02:59:54.094Z,18.80
2018-09-27T03:02:23.195Z,19.70
2018-09-27T03:04:52.424Z,17.23
2018-09-27T03:07:21.461Z,16.23
2018-09-27T03:09:51.441Z,18.03
2018-09-27T03:12:21.007Z,17.30
2018-09-27T03:14:50.042Z,17.93
2018-09-27T03:17:19.697Z,19.27
2018-09-27T03:19:48.716Z,18.40
2018-09-27T03:22:17.759Z,17.17
2018-09-27T03:24:46.800Z,17.47
2018-09-27T03:27:15.841Z,17.07
2018-09-27T03:29:44.857Z,16.90
2018-09-27T03:32:13.927Z,16.07
2018-09-27T03:34:42.962Z,16.23
2018-09-27T03:37:11.962Z,16.70
2018-09-27T03:39:41.004Z,15.00
2018-09-27T03:42:10.008Z,14.43
2018-09-27T03:44:39.039Z,14.07
2018-09-27T03:47:08.421Z,15.30
2018-09-27T03:49:37.452Z,15.90
2018-09-27T03:52:06.646Z,16.43
2018-09-27T03:54:35.708Z,16.20
2018-09-27T03:57:04.730Z,16.50
2018-09-27T03:59:34.338Z,15.97
2018-09-27T04:02:03.409Z,14.63
2018-09-27T04:04:32.433Z,16.53
2018-09-27T04:07:01.693Z,16.43
2018-09-27T04:09:31.176Z,16.10
2018-09-27T04:12:00.714Z,17.10
2018-09-27T04:14:29.732Z,18.60
2018-09-27T04:16:59.317Z,17.60
2018-09-27T04:19:28.596Z,16.50
2018-09-27T04:21:57.662Z,17.13
2018-09-27T04:24:27.099Z,16.53
2018-09-27T04:26:56.148Z,17.33
2018-09-27T04:29:25.163Z,20.37
2018-09-27T04:31:54.169Z,19.30
2018-09-27T04:34:23.227Z,17.93
2018-09-27T04:36:52.323Z,18.93
2018-09-27T04:39:21.314Z,19.90
2018-09-27T04:41:50.342Z,20.27
2018-09-27T04:44:19.385Z,19.00
2018-09-27T04:46:48.459Z,19.60
2018-09-27T04:49:17.501Z,19.80
2018-09-27T04:51:46.565Z,19.73
2018-09-27T04:54:15.563Z,18.93
2018-09-27T04:56:44.662Z,18.63
2018-09-27T04:59:13.622Z,21.10
2018-09-27T05:01:42.651Z,20.33
2018-09-27T05:04:11.732Z,19.47
2018-09-27T05:06:40.751Z,20.43
2018-09-27T05:09:10.109Z,19.77
2018-09-27T05:11:39.922Z,19.33
2018-09-27T05:14:08.998Z,19.30
2018-09-27T05:16:38.115Z,20.70
2018-09-27T05:19:07.196Z,19.90
2018-09-27T05:21:36.366Z,19.90
2018-09-27T05:24:05.342Z,20.40
2018-09-27T05:26:34.354Z,18.73
2018-09-27T05:29:03.360Z,18.97
2018-09-27T05:31:32.371Z,20.30
2018-09-27T05:34:01.428Z,20.37
2018-09-27T05:36:30.426Z,20.13
2018-09-27T05:38:59.452Z,19.20
2018-09-27T05:41:28.460Z,18.83
2018-09-27T05:43:57.500Z,20.57
2018-09-27T05:46:26.492Z,20.23
2018-09-27T05:48:55.516Z,19.87
2018-09-27T05:51:24.575Z,20.77
2018-09-27T05:53:53.508Z,22.37
2018-09-27T05:56:22.481Z,22.93
2018-09-27T05:58:51.488Z,21.60
2018-09-27T06:01:20.507Z,22.13
2018-09-27T06:03:49.535Z,20.63
2018-09-27T06:06:18.593Z,21.33
2018-09-27T06:08:47.605Z,21.10
2018-09-27T06:11:16.705Z,22.30
2018-09-27T06:13:45.712Z,22.00
2018-09-27T06:16:14.700Z,22.07
2018-09-27T06:18:43.744Z,22.20
2018-09-27T06:21:12.776Z,21.60
2018-09-27T06:23:42.368Z,21.53
2018-09-27T06:26:11.454Z,21.77
2018-09-27T06:28:40.397Z,21.50
2018-09-27T06:31:09.844Z,23.20
2018-09-27T06:33:38.891Z,22.87
2018-09-27T06:36:07.846Z,23.70
2018-09-27T06:38:36.901Z,22.07
2018-09-27T06:41:05.928Z,21.80
2018-09-27T06:43:34.971Z,24.27
2018-09-27T06:46:03.974Z,24.40
2018-09-27T06:48:33.036Z,21.70
2018-09-27T06:51:02.028Z,22.03
2018-09-27T06:53:31.044Z,22.37
2018-09-27T06:56:00.127Z,22.30
2018-09-27T06:58:29.064Z,21.90
2018-09-27T07:00:58.218Z,22.73
2018-09-27T07:03:27.182Z,23.60
2018-09-27T07:05:56.213Z,22.43
2018-09-27T07:08:25.304Z,19.97
2018-09-27T07:10:54.300Z,22.40
2018-09-27T07:13:23.344Z,22.30
2018-09-27T07:15:52.358Z,21.50
2018-09-27T07:18:21.390Z,21.60
2018-09-27T07:20:50.427Z,22.93
2018-09-27T07:23:19.420Z,22.20
2018-09-27T07:25:48.706Z,23.33
2018-09-27T07:28:17.709Z,25.20
2018-09-27T07:30:46.728Z,23.27
2018-09-27T07:33:15.730Z,25.50
2018-09-27T07:35:44.865Z,26.33
2018-09-27T07:38:13.911Z,24.40
2018-09-27T07:40:42.916Z,24.83
2018-09-27T07:43:12.000Z,24.40
2018-09-27T07:45:40.987Z,24.33
2018-09-27T07:48:10.048Z,24.23
2018-09-27T07:50:39.100Z,24.27
2018-09-27T07:53:08.142Z,26.00
2018-09-27T07:55:37.220Z,25.43
2018-09-27T07:58:06.534Z,25.43
2018-09-27T08:00:35.564Z,24.73
2018-09-27T08:03:04.699Z,25.77
2018-09-27T08:05:33.648Z,25.03
2018-09-27T08:08:02.658Z,25.70
2018-09-27T08:10:31.680Z,25.33
2018-09-27T08:13:00.671Z,25.90
2018-09-27T08:15:29.688Z,25.07
2018-09-27T08:17:58.789Z,25.20
2018-09-27T08:20:27.970Z,25.57
2018-09-27T08:22:56.886Z,25.77
2018-09-27T08:25:25.946Z,26.27
2018-09-27T08:27:55.555Z,26.90
2018-09-27T08:30:24.627Z,26.37
2018-09-27T08:32:53.658Z,25.93
2018-09-27T08:35:22.673Z,27.27
2018-09-27T08:37:51.685Z,28.00
2018-09-27T08:40:20.763Z,27.50
2018-09-27T08:42:49.812Z,27.07
2018-09-27T08:45:19.136Z,27.40
2018-09-27T08:47:47.996Z,27.17
2018-09-27T08:50:17.315Z,29.50
2018-09-27T08:52:46.403Z,28.33
2018-09-27T08:55:15.636Z,28.30
2018-09-27T08:57:45.019Z,28.17
2018-09-27T09:00:14.160Z,30.50
2018-09-27T09:02:43.265Z,29.27
2018-09-27T09:05:12.412Z,28.23
2018-09-27T09:07:41.591Z,27.20
2018-09-27T09:10:10.326Z,28.23
2018-09-27T09:12:39.428Z,28.30
2018-09-27T09:15:08.579Z,30.10
2018-09-27T09:17:37.906Z,29.60
2018-09-27T09:20:07.473Z,28.87
2018-09-27T09:22:36.584Z,29.27
2018-09-27T09:25:05.722Z,28.80
2018-09-27T09:27:34.883Z,28.07
2018-09-27T09:30:04.088Z,29.17
2018-09-27T09:32:33.136Z,27.20
2018-09-27T09:35:02.283Z,28.57
2018-09-27T09:37:31.407Z,26.97
2018-09-27T09:40:00.474Z,26.40
2018-09-27T09:42:29.574Z,27.53
2018-09-27T09:44:58.712Z,27.87
2018-09-27T09:47:27.898Z,27.70
2018-09-27T09:49:57.005Z,26.20
2018-09-27T09:52:26.052Z,27.23
2018-09-27T09:54:55.172Z,26.50
2018-09-27T09:57:24.262Z,25.47
2018-09-27T09:59:53.344Z,25.67
2018-09-27T10:02:22.444Z,25.00
2018-09-27T10:04:51.528Z,22.60
2018-09-27T10:07:20.608Z,23.43
2018-09-27T10:09:49.694Z,22.73
2018-09-27T10:12:18.782Z,22.03
2018-09-27T10:14:47.880Z,23.00
2018-09-27T10:17:16.973Z,24.83
2018-09-27T10:19:46.100Z,23.73
2018-09-27T10:22:15.159Z,24.90
2018-09-27T10:24:44.216Z,24.23
2018-09-27T10:27:13.362Z,21.90
2018-09-27T10:29:42.426Z,22.30
2018-09-27T10:32:11.766Z,22.80
2018-09-27T10:34:40.925Z,23.00
2018-09-27T10:37:09.930Z,22.97
2018-09-27T10:39:39.011Z,21.27
2018-09-27T10:42:08.083Z,20.47
2018-09-27T10:44:37.160Z,21.23
2018-09-27T10:47:06.668Z,20.77
2018-09-27T10:49:35.758Z,20.07
2018-09-27T10:52:04.856Z,20.70
2018-09-27T10:54:33.934Z,19.67
2018-09-27T10:57:03.046Z,17.87
2018-09-27T10:59:32.185Z,19.53
2018-09-27T11:02:01.213Z,20.77
2018-09-27T11:04:30.382Z,18.47
2018-09-27T11:06:59.478Z,18.40
2018-09-27T11:09:28.531Z,17.60
2018-09-27T11:11:57.646Z,16.80
2018-09-27T11:14:26.740Z,14.70
2018-09-27T11:16:55.828Z,16.53
2018-09-27T11:19:24.902Z,15.30
2018-09-27T11:21:53.984Z,14.67
2018-09-27T11:24:23.059Z,14.23
2018-09-27T11:26:52.143Z,13.97
2018-09-27T11:29:26.615Z,13.37
2018-09-27T11:32:01.037Z,15.60
2018-09-27T11:34:30.429Z,14.53
2018-09-27T11:36:59.495Z,13.70
2018-09-27T11:39:28.663Z,13.87
2018-09-27T11:41:57.743Z,13.00
2018-09-27T11:44:26.958Z,12.97
2018-09-27T11:46:56.064Z,11.90
2018-09-27T11:49:25.317Z,11.80
2018-09-27T11:51:54.226Z,12.20
2018-09-27T11:54:23.368Z,11.40
2018-09-27T11:56:52.488Z,10.50
2018-09-27T11:59:21.549Z,10.90
2018-09-27T12:01:51.271Z,10.67
2018-09-27T12:04:21.295Z,9.70
2018-09-27T12:06:50.418Z,10.13
2018-09-27T12:09:19.601Z,8.90
2018-09-27T12:11:48.707Z,7.33
2018-09-27T12:14:17.881Z,7.50
2018-09-27T12:16:47.025Z,8.10
2018-09-27T12:19:16.107Z,7.57
2018-09-27T12:21:45.189Z,7.90
2018-09-27T12:24:14.278Z,7.47
2018-09-27T12:26:43.497Z,8.50
2018-09-27T12:29:12.719Z,7.20
2018-09-27T12:31:41.893Z,6.40
2018-09-27T12:34:11.140Z,7.10
2018-09-27T12:36:41.023Z,6.83
2018-09-27T12:39:12.263Z,7.43
2018-09-27T12:41:41.555Z,6.47
2018-09-27T12:44:10.591Z,6.60
2018-09-27T12:46:39.828Z,6.83
2018-09-27T12:49:08.797Z,6.30
2018-09-27T12:51:37.983Z,6.77
2018-09-27T12:54:07.445Z,7.00
2018-09-27T12:56:37.351Z,6.83
2018-09-27T12:59:06.745Z,7.13
2018-09-27T13:01:36.516Z,5.90
2018-09-27T13:04:05.614Z,6.33
2018-09-27T13:06:35.525Z,6.23
2018-09-27T13:09:07.175Z,6.30
2018-09-27T13:11:40.641Z,6.27
2018-09-27T13:14:05.287Z,6.27
2018-09-27T13:16:34.380Z,6.00
2018-09-27T13:19:03.519Z,6.90
2018-09-27T13:21:32.586Z,5.77
2018-09-27T13:24:01.675Z,5.50
2018-09-27T13:26:30.786Z,6.10
2018-09-27T13:28:59.910Z,6.10
2018-09-27T13:31:29.116Z,6.03
2018-09-27T13:33:58.311Z,6.07
2018-09-27T13:36:27.437Z,6.27
2018-09-27T13:38:56.646Z,6.10
2018-09-27T13:41:25.704Z,5.97
2018-09-27T13:43:54.775Z,5.37
2018-09-27T13:46:23.830Z,6.30
2018-09-27T13:48:52.944Z,5.50
2018-09-27T13:51:21.981Z,6.73
2018-09-27T13:53:51.577Z,6.20
2018-09-27T13:56:20.670Z,5.20
2018-09-27T13:58:49.725Z,6.70
2018-09-27T14:01:18.812Z,5.73
2018-09-27T14:03:47.869Z,6.30
2018-09-27T14:06:16.966Z,5.50
2018-09-27T14:08:46.027Z,6.10
2018-09-27T14:11:15.153Z,5.50
2018-09-27T14:13:44.211Z,5.20
2018-09-27T14:16:13.278Z,4.73
2018-09-27T14:18:42.388Z,5.40
2018-09-27T14:21:11.464Z,4.93
2018-09-27T14:23:40.551Z,5.17
2018-09-27T14:26:09.694Z,5.03
2018-09-27T14:28:38.774Z,4.60
2018-09-27T14:31:08.080Z,4.83
2018-09-27T14:33:37.190Z,5.20
2018-09-27T14:36:06.393Z,4.50
2018-09-27T14:38:35.467Z,4.33
2018-09-27T14:41:04.752Z,5.20
2018-09-27T14:43:33.791Z,5.27
2018-09-27T14:46:02.869Z,4.90
2018-09-27T14:48:31.953Z,4.87
2018-09-27T14:51:01.019Z,4.87
2018-09-27T14:53:30.113Z,4.30
2018-09-27T14:55:59.201Z,5.27
2018-09-27T14:58:28.330Z,4.90
2018-09-27T15:00:57.347Z,4.10
2018-09-27T15:03:27.150Z,4.40
2018-09-27T15:05:56.215Z,4.90
2018-09-27T15:08:25.301Z,4.23
2018-09-27T15:10:54.458Z,4.60
2018-09-27T15:13:23.438Z,4.70
2018-09-27T15:15:52.505Z,4.03
2018-09-27T15:18:21.585Z,5.80
2018-09-27T15:20:50.636Z,4.00
2018-09-27T15:23:19.704Z,4.03
2018-09-27T15:25:48.783Z,4.20
2018-09-27T15:28:17.867Z,4.43
2018-09-27T15:30:46.980Z,4.20
2018-09-27T15:33:15.994Z,4.13
2018-09-27T15:35:45.084Z,4.10
2018-09-27T15:38:14.187Z,4.70
2018-09-27T15:40:43.280Z,3.83
2018-09-27T15:43:12.720Z,3.80
2018-09-27T15:45:41.908Z,3.80
2018-09-27T15:48:10.970Z,3.83
2018-09-27T15:50:40.044Z,4.27
2018-09-27T15:53:09.096Z,4.30
2018-09-27T15:55:38.210Z,4.20
2018-09-27T15:58:07.308Z,4.70
2018-09-27T16:00:36.403Z,4.00
2018-09-27T16:03:06.190Z,4.00
2018-09-27T16:05:35.301Z,4.20
2018-09-27T16:08:04.357Z,4.70
2018-09-27T16:10:33.425Z,4.60
2018-09-27T16:13:02.522Z,3.80
2018-09-27T16:15:31.599Z,4.13
2018-09-27T16:18:00.700Z,3.90
2018-09-27T16:20:29.810Z,4.00
2018-09-27T16:22:58.878Z,4.20
2018-09-27T16:25:27.976Z,4.03
2018-09-27T16:27:57.087Z,4.13
2018-09-27T16:30:26.175Z,4.00
2018-09-27T16:32:55.257Z,3.83
2018-09-27T16:35:24.435Z,3.90
2018-09-27T16:37:53.810Z,3.50
2018-09-27T16:40:22.975Z,3.53
2018-09-27T16:42:52.098Z,3.67
2018-09-27T16:45:21.352Z,3.70
2018-09-27T16:47:50.448Z,3.47
2018-09-27T16:50:19.569Z,3.73
2018-09-27T16:52:48.672Z,4.13
2018-09-27T16:55:17.854Z,3.53
2018-09-27T16:57:46.936Z,3.53
2018-09-27T17:00:16.018Z,3.67
2018-09-27T17:02:45.074Z,3.43
2018-09-27T17:05:14.197Z,3.93
2018-09-27T17:07:43.276Z,3.87
2018-09-27T17:10:12.453Z,3.53
2018-09-27T17:12:41.585Z,4.13
2018-09-27T17:15:10.633Z,3.97
2018-09-27T17:17:39.813Z,4.30
2018-09-27T17:20:08.866Z,3.80
2018-09-27T17:22:37.994Z,4.20
2018-09-27T17:25:06.990Z,4.47
2018-09-27T17:27:36.081Z,4.10
2018-09-27T17:30:05.764Z,4.30
2018-09-27T17:32:34.908Z,4.13
2018-09-27T17:35:04.066Z,4.03
2018-09-27T17:37:33.371Z,4.60
2018-09-27T17:40:02.391Z,5.30
2018-09-27T17:42:31.491Z,5.10
2018-09-27T17:45:00.578Z,5.37
2018-09-27T17:47:30.042Z,5.80
2018-09-27T17:49:59.122Z,5.97
2018-09-27T17:52:28.248Z,6.87
2018-09-27T17:54:57.326Z,5.03
2018-09-27T17:57:26.425Z,7.47
2018-09-27T17:59:55.888Z,5.50
2018-09-27T18:02:25.267Z,5.73
2018-09-27T18:04:54.364Z,5.50
2018-09-27T18:07:23.443Z,5.30
2018-09-27T18:09:52.754Z,5.87
2018-09-27T18:12:21.828Z,5.23
2018-09-27T18:14:50.898Z,5.80
2018-09-27T18:17:20.003Z,6.00
2018-09-27T18:19:49.236Z,6.37
2018-09-27T18:22:18.405Z,6.37
2018-09-27T18:24:47.485Z,7.07
2018-09-27T18:27:16.623Z,6.60
2018-09-27T18:29:45.762Z,6.73
2018-09-27T18:32:14.906Z,6.97
2018-09-27T18:34:44.109Z,7.40
2018-09-27T18:37:13.169Z,6.17
2018-09-27T18:39:42.203Z,6.37
2018-09-27T18:42:11.458Z,7.50
2018-09-27T18:44:40.581Z,6.43
2018-09-27T18:47:09.685Z,7.57
2018-09-27T18:49:39.158Z,6.53
2018-09-27T18:52:08.298Z,6.43
2018-09-27T18:54:37.425Z,6.80
2018-09-27T18:57:06.584Z,6.00
2018-09-27T18:59:35.721Z,6.53
2018-09-27T19:02:04.899Z,6.80
2018-09-27T19:04:33.984Z,7.73
2018-09-27T19:07:03.079Z,7.00
2018-09-27T19:09:32.181Z,7.43
2018-09-27T19:12:01.246Z,6.80
2018-09-27T19:14:30.329Z,7.13
2018-09-27T19:16:59.819Z,7.27
2018-09-27T19:19:28.899Z,7.77
2018-09-27T19:21:58.034Z,7.60
2018-09-27T19:24:27.079Z,6.83
2018-09-27T19:26:56.184Z,7.80
2018-09-27T19:29:25.286Z,7.97
2018-09-27T19:31:54.376Z,7.90
2018-09-27T19:34:23.515Z,8.67
2018-09-27T19:36:52.590Z,8.70
2018-09-27T19:39:21.771Z,9.10
2018-09-27T19:41:50.861Z,8.37
2018-09-27T19:44:20.508Z,8.53
2018-09-27T19:46:49.600Z,8.70
2018-09-27T19:49:18.656Z,7.50
2018-09-27T19:51:48.269Z,7.73
2018-09-27T19:54:17.425Z,8.03
2018-09-27T19:56:46.492Z,7.53
2018-09-27T19:59:15.610Z,7.77
2018-09-27T20:01:44.699Z,8.07
2018-09-27T20:04:14.514Z,8.67
2018-09-27T20:06:43.585Z,8.60
2018-09-27T20:09:13.771Z,8.80
2018-09-27T20:11:43.464Z,9.50
2018-09-27T20:14:12.820Z,9.50
2018-09-27T20:16:42.234Z,9.67
2018-09-27T20:19:11.308Z,9.33
2018-09-27T20:21:40.464Z,9.40
2018-09-27T20:24:09.594Z,8.87
2018-09-27T20:26:38.661Z,9.20
2018-09-27T20:29:07.795Z,9.50
2018-09-27T20:31:37.001Z,10.33
2018-09-27T20:34:06.132Z,9.80
2018-09-27T20:36:35.160Z,11.00
2018-09-27T20:39:07.513Z,11.33
2018-09-27T20:41:38.306Z,11.80
2018-09-27T20:44:08.292Z,11.13
2018-09-27T20:46:37.377Z,11.43
2018-09-27T20:49:06.482Z,11.53
2018-09-27T20:51:35.590Z,10.30
2018-09-27T20:54:04.815Z,10.27
2018-09-27T20:56:33.889Z,10.53
2018-09-27T20:59:03.049Z,10.27
2018-09-27T21:01:32.115Z,10.80
2018-09-27T21:04:02.151Z,12.93
2018-09-27T21:06:31.245Z,12.63
2018-09-27T21:09:00.391Z,13.07
2018-09-27T21:11:29.785Z,12.00
2018-09-27T21:13:58.866Z,12.60
2018-09-27T21:16:27.978Z,12.07
2018-09-27T21:18:57.709Z,11.87
2018-09-27T21:21:26.777Z,13.03
2018-09-27T21:23:55.877Z,12.33
2018-09-27T21:26:25.065Z,12.40
2018-09-27T21:28:54.249Z,12.43
2018-09-27T21:31:23.391Z,12.80
2018-09-27T21:33:53.345Z,13.10
2018-09-27T21:36:22.431Z,13.17
2018-09-27T21:38:51.557Z,14.03
2018-09-27T21:41:20.713Z,13.50
2018-09-27T21:43:50.102Z,13.57
2018-09-27T21:46:19.403Z,11.97
2018-09-27T21:48:48.837Z,13.80
2018-09-27T21:51:17.927Z,14.03
2018-09-27T21:53:47.040Z,13.47
2018-09-27T21:56:16.254Z,13.00
2018-09-27T21:58:45.364Z,14.80
2018-09-27T22:01:14.466Z,14.57
2018-09-27T22:03:44.080Z,14.77
2018-09-27T22:06:13.149Z,14.50
2018-09-27T22:08:42.273Z,13.00
2018-09-27T22:11:11.574Z,13.97
2018-09-27T22:13:41.024Z,14.27
2018-09-27T22:16:10.190Z,12.90
2018-09-27T22:18:39.298Z,13.10
2018-09-27T22:21:09.370Z,13.60
2018-09-27T22:23:38.490Z,14.47
2018-09-27T22:26:07.584Z,13.83
2018-09-27T22:28:36.678Z,13.90
2018-09-27T22:31:06.368Z,13.70
2018-09-27T22:33:35.498Z,14.07
2018-09-27T22:36:04.760Z,15.20
2018-09-27T22:38:33.868Z,15.53
2018-09-27T22:41:02.958Z,14.50
2018-09-27T22:43:32.052Z,16.60
2018-09-27T22:46:01.126Z,16.63
2018-09-27T22:48:30.254Z,16.20
2018-09-27T22:50:59.312Z,17.03
2018-09-27T22:53:28.397Z,15.47
2018-09-27T22:55:57.494Z,17.47
2018-09-27T22:58:26.768Z,17.07
2018-09-27T23:00:55.830Z,17.67
2018-09-27T23:03:24.944Z,16.47
2018-09-27T23:05:54.004Z,15.67
2018-09-27T23:08:23.096Z,17.03
2018-09-27T23:10:52.766Z,15.80
2018-09-27T23:13:21.846Z,15.70
2018-09-27T23:15:50.952Z,15.10
2018-09-27T23:18:20.039Z,16.10
2018-09-27T23:20:49.124Z,18.00
2018-09-27T23:23:18.184Z,18.07
2018-09-27T23:25:47.283Z,17.90
2018-09-27T23:28:16.348Z,16.80
2018-09-27T23:30:45.586Z,17.30
2018-09-27T23:33:14.695Z,17.43
2018-09-27T23:35:43.794Z,16.93
2018-09-27T23:38:12.888Z,17.73
2018-09-27T23:40:41.994Z,17.17
2018-09-27T23:43:12.002Z,16.63
2018-09-27T23:45:41.062Z,17.33
2018-09-27T23:48:10.252Z,17.60
2018-09-27T23:50:39.322Z,18.77
2018-09-27T23:53:08.409Z,18.80
2018-09-27T23:55:37.508Z,18.80
2018-09-27T23:58:06.635Z,17.77
